sensor_id;sensor_type;location;lat;lon;timestamp;P1;durP1;ratioP1;P2;durP2;ratioP2
21107;SDS011;10712;52.944;9.098;2023-02-28T00:00:30;17.60;;;12.95;;
21107;SDS011;10712;52.944;9.098;2023-02-28T00:02:57;22.48;;;13.13;;
21107;SDS011;10712;52.944;9.098;2023-02-28T00:05:24;16.67;;;11.02;;
21107;SDS011;10712;52.944;9.098;2023-02-28T00:07:52;21.20;;;12.32;;
21107;SDS011;10712;52.944;9.098;2023-02-28T00:10:23;21.80;;;11.32;;
21107;SDS011;10712;52.944;9.098;2023-02-28T00:12:53;15.52;;;10.40;;
21107;SDS011;10712;52.944;9.098;2023-02-28T00:15:24;13.40;;;10.18;;
21107;SDS011;10712;52.944;9.098;2023-02-28T00:17:50;14.35;;;10.10;;
21107;SDS011;10712;52.944;9.098;2023-02-28T00:20:17;17.58;;;10.88;;
21107;SDS011;10712;52.944;9.098;2023-02-28T00:22:45;13.93;;;10.45;;
21107;SDS011;10712;52.944;9.098;2023-02-28T00:25:17;17.20;;;9.57;;
21107;SDS011;10712;52.944;9.098;2023-02-28T00:27:47;15.93;;;9.17;;
21107;SDS011;10712;52.944;9.098;2023-02-28T00:30:16;13.10;;;8.90;;
21107;SDS011;10712;52.944;9.098;2023-02-28T00:32:44;11.75;;;7.78;;
21107;SDS011;10712;52.944;9.098;2023-02-28T00:35:11;11.48;;;8.75;;
21107;SDS011;10712;52.944;9.098;2023-02-28T00:37:40;11.95;;;8.43;;
21107;SDS011;10712;52.944;9.098;2023-02-28T00:40:07;12.18;;;8.63;;
21107;SDS011;10712;52.944;9.098;2023-02-28T00:42:35;10.50;;;7.63;;
21107;SDS011;10712;52.944;9.098;2023-02-28T00:45:01;16.77;;;9.18;;
21107;SDS011;10712;52.944;9.098;2023-02-28T00:47:29;13.90;;;9.07;;
21107;SDS011;10712;52.944;9.098;2023-02-28T00:49:56;10.88;;;8.43;;
21107;SDS011;10712;52.944;9.098;2023-02-28T00:52:22;17.27;;;8.38;;
21107;SDS011;10712;52.944;9.098;2023-02-28T00:54:48;12.50;;;8.13;;
21107;SDS011;10712;52.944;9.098;2023-02-28T00:57:14;12.85;;;8.45;;
21107;SDS011;10712;52.944;9.098;2023-02-28T00:59:40;12.35;;;8.20;;
21107;SDS011;10712;52.944;9.098;2023-02-28T01:02:06;11.00;;;7.10;;
21107;SDS011;10712;52.944;9.098;2023-02-28T01:04:32;10.98;;;7.25;;
21107;SDS011;10712;52.944;9.098;2023-02-28T01:07:00;9.45;;;7.35;;
21107;SDS011;10712;52.944;9.098;2023-02-28T01:09:27;11.43;;;7.38;;
21107;SDS011;10712;52.944;9.098;2023-02-28T01:11:53;8.70;;;6.75;;
21107;SDS011;10712;52.944;9.098;2023-02-28T01:14:19;12.55;;;8.00;;
21107;SDS011;10712;52.944;9.098;2023-02-28T01:16:45;9.82;;;6.30;;
21107;SDS011;10712;52.944;9.098;2023-02-28T01:19:11;10.40;;;6.45;;
21107;SDS011;10712;52.944;9.098;2023-02-28T01:21:37;10.68;;;7.10;;
21107;SDS011;10712;52.944;9.098;2023-02-28T01:24:04;11.32;;;7.97;;
21107;SDS011;10712;52.944;9.098;2023-02-28T01:26:32;11.55;;;7.47;;
21107;SDS011;10712;52.944;9.098;2023-02-28T01:28:57;9.63;;;7.13;;
21107;SDS011;10712;52.944;9.098;2023-02-28T01:31:24;9.35;;;6.20;;
21107;SDS011;10712;52.944;9.098;2023-02-28T01:33:50;10.70;;;7.03;;
21107;SDS011;10712;52.944;9.098;2023-02-28T01:36:18;11.60;;;7.72;;
21107;SDS011;10712;52.944;9.098;2023-02-28T01:38:49;9.70;;;7.05;;
21107;SDS011;10712;52.944;9.098;2023-02-28T01:41:20;8.88;;;6.53;;
21107;SDS011;10712;52.944;9.098;2023-02-28T01:47:22;7.35;;;5.55;;
21107;SDS011;10712;52.944;9.098;2023-02-28T01:49:55;6.53;;;5.03;;
21107;SDS011;10712;52.944;9.098;2023-02-28T01:52:23;8.23;;;5.80;;
21107;SDS011;10712;52.944;9.098;2023-02-28T01:54:53;7.38;;;5.57;;
21107;SDS011;10712;52.944;9.098;2023-02-28T01:57:23;8.48;;;5.60;;
21107;SDS011;10712;52.944;9.098;2023-02-28T02:00:03;9.93;;;6.22;;
21107;SDS011;10712;52.944;9.098;2023-02-28T02:02:38;11.65;;;6.05;;
21107;SDS011;10712;52.944;9.098;2023-02-28T02:05:10;8.43;;;5.95;;
21107;SDS011;10712;52.944;9.098;2023-02-28T02:07:44;6.45;;;4.80;;
21107;SDS011;10712;52.944;9.098;2023-02-28T02:18:43;6.28;;;4.43;;
21107;SDS011;10712;52.944;9.098;2023-02-28T02:43:46;6.63;;;4.72;;
21107;SDS011;10712;52.944;9.098;2023-02-28T02:46:23;7.45;;;4.03;;
21107;SDS011;10712;52.944;9.098;2023-02-28T02:48:58;9.18;;;4.18;;
21107;SDS011;10712;52.944;9.098;2023-02-28T02:51:28;7.50;;;4.43;;
21107;SDS011;10712;52.944;9.098;2023-02-28T02:56:39;8.88;;;3.95;;
21107;SDS011;10712;52.944;9.098;2023-02-28T02:59:11;7.10;;;4.60;;
21107;SDS011;10712;52.944;9.098;2023-02-28T03:01:50;6.18;;;3.92;;
21107;SDS011;10712;52.944;9.098;2023-02-28T03:04:22;7.75;;;4.70;;
21107;SDS011;10712;52.944;9.098;2023-02-28T03:06:53;6.47;;;4.28;;
21107;SDS011;10712;52.944;9.098;2023-02-28T03:09:21;6.32;;;4.65;;
21107;SDS011;10712;52.944;9.098;2023-02-28T03:11:48;7.18;;;5.22;;
21107;SDS011;10712;52.944;9.098;2023-02-28T03:17:16;9.20;;;4.45;;
21107;SDS011;10712;52.944;9.098;2023-02-28T03:23:07;6.40;;;5.03;;
21107;SDS011;10712;52.944;9.098;2023-02-28T03:25:51;5.60;;;4.25;;
21107;SDS011;10712;52.944;9.098;2023-02-28T03:28:43;6.00;;;4.45;;
21107;SDS011;10712;52.944;9.098;2023-02-28T03:31:30;6.80;;;4.40;;
21107;SDS011;10712;52.944;9.098;2023-02-28T03:36:51;9.10;;;4.60;;
21107;SDS011;10712;52.944;9.098;2023-02-28T03:39:29;5.30;;;4.35;;
21107;SDS011;10712;52.944;9.098;2023-02-28T03:42:18;6.82;;;4.78;;
21107;SDS011;10712;52.944;9.098;2023-02-28T03:47:29;5.28;;;4.10;;
21107;SDS011;10712;52.944;9.098;2023-02-28T03:50:47;7.70;;;5.10;;
21107;SDS011;10712;52.944;9.098;2023-02-28T03:53:21;5.00;;;4.00;;
21107;SDS011;10712;52.944;9.098;2023-02-28T03:56:14;8.13;;;4.53;;
21107;SDS011;10712;52.944;9.098;2023-02-28T03:58:57;6.38;;;4.20;;
21107;SDS011;10712;52.944;9.098;2023-02-28T04:01:41;4.00;;;3.60;;
21107;SDS011;10712;52.944;9.098;2023-02-28T04:04:11;7.10;;;4.10;;
21107;SDS011;10712;52.944;9.098;2023-02-28T04:06:38;6.07;;;4.23;;
21107;SDS011;10712;52.944;9.098;2023-02-28T04:09:06;8.82;;;4.53;;
21107;SDS011;10712;52.944;9.098;2023-02-28T04:11:37;6.25;;;4.18;;
21107;SDS011;10712;52.944;9.098;2023-02-28T04:14:04;6.32;;;4.10;;
21107;SDS011;10712;52.944;9.098;2023-02-28T04:16:32;5.70;;;4.45;;
21107;SDS011;10712;52.944;9.098;2023-02-28T04:19:00;7.82;;;4.68;;
21107;SDS011;10712;52.944;9.098;2023-02-28T04:21:31;5.25;;;3.95;;
21107;SDS011;10712;52.944;9.098;2023-02-28T04:24:04;6.43;;;4.30;;
21107;SDS011;10712;52.944;9.098;2023-02-28T04:26:31;6.13;;;4.65;;
21107;SDS011;10712;52.944;9.098;2023-02-28T04:29:00;4.60;;;3.92;;
21107;SDS011;10712;52.944;9.098;2023-02-28T04:31:27;5.80;;;4.53;;
21107;SDS011;10712;52.944;9.098;2023-02-28T04:33:53;8.57;;;5.25;;
21107;SDS011;10712;52.944;9.098;2023-02-28T04:36:18;7.15;;;4.57;;
21107;SDS011;10712;52.944;9.098;2023-02-28T04:38:44;6.07;;;4.55;;
21107;SDS011;10712;52.944;9.098;2023-02-28T04:41:14;7.43;;;4.10;;
21107;SDS011;10712;52.944;9.098;2023-02-28T04:43:41;9.77;;;4.85;;
21107;SDS011;10712;52.944;9.098;2023-02-28T04:46:08;6.97;;;4.50;;
21107;SDS011;10712;52.944;9.098;2023-02-28T04:48:35;6.22;;;4.88;;
21107;SDS011;10712;52.944;9.098;2023-02-28T04:51:07;6.95;;;4.03;;
21107;SDS011;10712;52.944;9.098;2023-02-28T04:53:37;4.93;;;3.80;;
21107;SDS011;10712;52.944;9.098;2023-02-28T04:56:05;4.97;;;3.63;;
21107;SDS011;10712;52.944;9.098;2023-02-28T04:58:33;5.28;;;4.13;;
21107;SDS011;10712;52.944;9.098;2023-02-28T05:01:45;6.47;;;3.40;;
21107;SDS011;10712;52.944;9.098;2023-02-28T05:03:53;7.25;;;4.15;;
21107;SDS011;10712;52.944;9.098;2023-02-28T05:06:22;5.47;;;4.43;;
21107;SDS011;10712;52.944;9.098;2023-02-28T05:08:50;5.10;;;4.18;;
21107;SDS011;10712;52.944;9.098;2023-02-28T05:11:19;6.88;;;4.25;;
21107;SDS011;10712;52.944;9.098;2023-02-28T05:16:30;7.03;;;4.43;;
21107;SDS011;10712;52.944;9.098;2023-02-28T05:18:56;6.05;;;4.10;;
21107;SDS011;10712;52.944;9.098;2023-02-28T05:21:26;6.53;;;4.35;;
21107;SDS011;10712;52.944;9.098;2023-02-28T05:24:00;6.25;;;4.15;;
21107;SDS011;10712;52.944;9.098;2023-02-28T05:26:37;5.93;;;4.15;;
21107;SDS011;10712;52.944;9.098;2023-02-28T05:29:06;6.65;;;3.80;;
21107;SDS011;10712;52.944;9.098;2023-02-28T05:31:32;6.03;;;4.22;;
21107;SDS011;10712;52.944;9.098;2023-02-28T05:33:58;5.38;;;3.75;;
21107;SDS011;10712;52.944;9.098;2023-02-28T05:36:25;7.60;;;4.80;;
21107;SDS011;10712;52.944;9.098;2023-02-28T05:38:51;7.47;;;4.20;;
21107;SDS011;10712;52.944;9.098;2023-02-28T05:41:17;4.95;;;4.25;;
21107;SDS011;10712;52.944;9.098;2023-02-28T05:43:45;8.13;;;4.03;;
21107;SDS011;10712;52.944;9.098;2023-02-28T05:46:12;5.82;;;4.35;;
21107;SDS011;10712;52.944;9.098;2023-02-28T05:48:38;5.35;;;3.80;;
21107;SDS011;10712;52.944;9.098;2023-02-28T05:51:06;4.07;;;3.55;;
21107;SDS011;10712;52.944;9.098;2023-02-28T05:53:34;5.25;;;3.50;;
21107;SDS011;10712;52.944;9.098;2023-02-28T05:56:00;4.55;;;3.53;;
21107;SDS011;10712;52.944;9.098;2023-02-28T05:58:27;6.57;;;3.88;;
21107;SDS011;10712;52.944;9.098;2023-02-28T06:00:56;6.97;;;3.70;;
21107;SDS011;10712;52.944;9.098;2023-02-28T06:03:23;6.82;;;4.22;;
21107;SDS011;10712;52.944;9.098;2023-02-28T06:05:50;10.10;;;5.20;;
21107;SDS011;10712;52.944;9.098;2023-02-28T06:08:15;5.35;;;4.25;;
21107;SDS011;10712;52.944;9.098;2023-02-28T06:10:41;7.07;;;3.85;;
21107;SDS011;10712;52.944;9.098;2023-02-28T06:13:07;8.60;;;4.95;;
21107;SDS011;10712;52.944;9.098;2023-02-28T06:15:33;9.85;;;5.07;;
21107;SDS011;10712;52.944;9.098;2023-02-28T06:17:59;5.97;;;4.28;;
21107;SDS011;10712;52.944;9.098;2023-02-28T06:20:26;7.53;;;4.28;;
21107;SDS011;10712;52.944;9.098;2023-02-28T06:22:56;6.38;;;4.75;;
21107;SDS011;10712;52.944;9.098;2023-02-28T06:25:26;6.18;;;4.60;;
21107;SDS011;10712;52.944;9.098;2023-02-28T06:27:53;9.13;;;5.22;;
21107;SDS011;10712;52.944;9.098;2023-02-28T06:30:20;7.78;;;5.45;;
21107;SDS011;10712;52.944;9.098;2023-02-28T06:32:51;5.95;;;4.40;;
21107;SDS011;10712;52.944;9.098;2023-02-28T06:35:18;7.88;;;4.90;;
21107;SDS011;10712;52.944;9.098;2023-02-28T06:37:44;4.85;;;4.38;;
21107;SDS011;10712;52.944;9.098;2023-02-28T06:40:10;5.20;;;4.63;;
21107;SDS011;10712;52.944;9.098;2023-02-28T06:42:37;8.00;;;5.17;;
21107;SDS011;10712;52.944;9.098;2023-02-28T06:45:03;5.05;;;4.55;;
21107;SDS011;10712;52.944;9.098;2023-02-28T06:47:34;7.05;;;5.30;;
21107;SDS011;10712;52.944;9.098;2023-02-28T06:50:02;7.50;;;4.82;;
21107;SDS011;10712;52.944;9.098;2023-02-28T06:52:28;5.75;;;4.22;;
21107;SDS011;10712;52.944;9.098;2023-02-28T06:54:55;6.75;;;4.70;;
21107;SDS011;10712;52.944;9.098;2023-02-28T06:57:34;6.22;;;4.45;;
21107;SDS011;10712;52.944;9.098;2023-02-28T07:00:02;7.38;;;5.38;;
21107;SDS011;10712;52.944;9.098;2023-02-28T07:02:36;4.63;;;4.13;;
21107;SDS011;10712;52.944;9.098;2023-02-28T07:05:05;5.78;;;4.63;;
21107;SDS011;10712;52.944;9.098;2023-02-28T07:07:32;5.90;;;4.60;;
21107;SDS011;10712;52.944;9.098;2023-02-28T07:09:58;5.80;;;4.68;;
21107;SDS011;10712;52.944;9.098;2023-02-28T07:12:24;8.27;;;4.93;;
21107;SDS011;10712;52.944;9.098;2023-02-28T07:14:50;9.85;;;5.22;;
21107;SDS011;10712;52.944;9.098;2023-02-28T07:17:15;6.13;;;4.70;;
21107;SDS011;10712;52.944;9.098;2023-02-28T07:19:41;6.97;;;5.05;;
21107;SDS011;10712;52.944;9.098;2023-02-28T07:22:07;6.03;;;4.18;;
21107;SDS011;10712;52.944;9.098;2023-02-28T07:24:33;5.43;;;4.53;;
21107;SDS011;10712;52.944;9.098;2023-02-28T07:26:59;6.10;;;4.28;;
21107;SDS011;10712;52.944;9.098;2023-02-28T07:29:26;11.93;;;8.40;;
21107;SDS011;10712;52.944;9.098;2023-02-28T07:31:52;12.90;;;8.18;;
21107;SDS011;10712;52.944;9.098;2023-02-28T07:34:18;19.27;;;11.45;;
21107;SDS011;10712;52.944;9.098;2023-02-28T07:36:45;21.40;;;11.90;;
21107;SDS011;10712;52.944;9.098;2023-02-28T07:39:11;12.35;;;7.85;;
21107;SDS011;10712;52.944;9.098;2023-02-28T07:41:36;9.18;;;6.50;;
21107;SDS011;10712;52.944;9.098;2023-02-28T07:44:09;9.10;;;6.70;;
21107;SDS011;10712;52.944;9.098;2023-02-28T07:46:36;6.63;;;5.07;;
21107;SDS011;10712;52.944;9.098;2023-02-28T07:49:02;9.15;;;6.00;;
21107;SDS011;10712;52.944;9.098;2023-02-28T07:51:30;8.02;;;5.72;;
21107;SDS011;10712;52.944;9.098;2023-02-28T07:53:57;4.95;;;4.35;;
21107;SDS011;10712;52.944;9.098;2023-02-28T07:56:23;7.82;;;5.68;;
21107;SDS011;10712;52.944;9.098;2023-02-28T07:58:49;9.77;;;5.13;;
21107;SDS011;10712;52.944;9.098;2023-02-28T08:01:14;7.45;;;4.63;;
21107;SDS011;10712;52.944;9.098;2023-02-28T08:03:40;7.60;;;4.45;;
21107;SDS011;10712;52.944;9.098;2023-02-28T08:06:07;5.38;;;4.47;;
21107;SDS011;10712;52.944;9.098;2023-02-28T08:08:41;6.13;;;4.90;;
21107;SDS011;10712;52.944;9.098;2023-02-28T08:11:07;14.60;;;9.20;;
21107;SDS011;10712;52.944;9.098;2023-02-28T08:13:32;92.82;;;48.72;;
21107;SDS011;10712;52.944;9.098;2023-02-28T08:16:00;65.32;;;40.75;;
21107;SDS011;10712;52.944;9.098;2023-02-28T08:18:28;39.25;;;24.58;;
21107;SDS011;10712;52.944;9.098;2023-02-28T08:20:54;33.33;;;21.63;;
21107;SDS011;10712;52.944;9.098;2023-02-28T08:23:21;25.75;;;16.13;;
21107;SDS011;10712;52.944;9.098;2023-02-28T08:25:56;81.38;;;46.03;;
21107;SDS011;10712;52.944;9.098;2023-02-28T08:28:22;36.58;;;23.23;;
21107;SDS011;10712;52.944;9.098;2023-02-28T08:30:48;19.13;;;13.82;;
21107;SDS011;10712;52.944;9.098;2023-02-28T08:33:14;10.52;;;8.65;;
21107;SDS011;10712;52.944;9.098;2023-02-28T08:35:39;13.73;;;9.27;;
21107;SDS011;10712;52.944;9.098;2023-02-28T08:38:05;10.75;;;7.43;;
21107;SDS011;10712;52.944;9.098;2023-02-28T08:40:31;11.93;;;7.28;;
21107;SDS011;10712;52.944;9.098;2023-02-28T08:42:57;11.82;;;7.57;;
21107;SDS011;10712;52.944;9.098;2023-02-28T08:45:23;14.50;;;10.60;;
21107;SDS011;10712;52.944;9.098;2023-02-28T08:47:49;12.88;;;8.60;;
21107;SDS011;10712;52.944;9.098;2023-02-28T08:50:17;8.93;;;6.82;;
21107;SDS011;10712;52.944;9.098;2023-02-28T08:52:43;7.70;;;6.20;;
21107;SDS011;10712;52.944;9.098;2023-02-28T08:55:09;7.75;;;6.10;;
21107;SDS011;10712;52.944;9.098;2023-02-28T08:57:35;7.68;;;5.88;;
21107;SDS011;10712;52.944;9.098;2023-02-28T09:00:03;6.95;;;5.75;;
21107;SDS011;10712;52.944;9.098;2023-02-28T09:02:32;5.85;;;5.07;;
21107;SDS011;10712;52.944;9.098;2023-02-28T09:04:59;9.73;;;5.47;;
21107;SDS011;10712;52.944;9.098;2023-02-28T09:07:24;7.63;;;5.65;;
21107;SDS011;10712;52.944;9.098;2023-02-28T09:09:50;6.95;;;5.10;;
21107;SDS011;10712;52.944;9.098;2023-02-28T09:12:22;7.78;;;5.05;;
21107;SDS011;10712;52.944;9.098;2023-02-28T09:14:51;6.20;;;4.85;;
21107;SDS011;10712;52.944;9.098;2023-02-28T09:17:17;22.52;;;15.77;;
21107;SDS011;10712;52.944;9.098;2023-02-28T09:19:44;19.50;;;11.40;;
21107;SDS011;10712;52.944;9.098;2023-02-28T09:22:12;12.00;;;6.65;;
21107;SDS011;10712;52.944;9.098;2023-02-28T09:24:38;7.80;;;6.07;;
21107;SDS011;10712;52.944;9.098;2023-02-28T09:27:03;7.95;;;6.03;;
21107;SDS011;10712;52.944;9.098;2023-02-28T09:29:30;7.53;;;5.63;;
21107;SDS011;10712;52.944;9.098;2023-02-28T09:31:59;7.45;;;5.68;;
21107;SDS011;10712;52.944;9.098;2023-02-28T09:34:26;8.82;;;5.30;;
21107;SDS011;10712;52.944;9.098;2023-02-28T09:36:55;6.43;;;5.13;;
21107;SDS011;10712;52.944;9.098;2023-02-28T09:39:21;7.43;;;5.68;;
21107;SDS011;10712;52.944;9.098;2023-02-28T09:41:50;6.82;;;5.03;;
21107;SDS011;10712;52.944;9.098;2023-02-28T09:46:55;9.40;;;7.65;;
21107;SDS011;10712;52.944;9.098;2023-02-28T09:49:35;8.85;;;5.70;;
21107;SDS011;10712;52.944;9.098;2023-02-28T09:52:12;7.00;;;4.55;;
21107;SDS011;10712;52.944;9.098;2023-02-28T09:54:44;5.07;;;3.83;;
21107;SDS011;10712;52.944;9.098;2023-02-28T09:57:14;4.43;;;3.72;;
21107;SDS011;10712;52.944;9.098;2023-02-28T10:05:41;2.95;;;2.67;;
21107;SDS011;10712;52.944;9.098;2023-02-28T10:08:25;2.58;;;2.38;;
21107;SDS011;10712;52.944;9.098;2023-02-28T10:11:06;2.55;;;1.95;;
21107;SDS011;10712;52.944;9.098;2023-02-28T10:13:45;3.08;;;1.52;;
21107;SDS011;10712;52.944;9.098;2023-02-28T10:16:47;3.28;;;1.63;;
21107;SDS011;10712;52.944;9.098;2023-02-28T10:19:33;1.42;;;1.30;;
21107;SDS011;10712;52.944;9.098;2023-02-28T10:22:12;2.45;;;1.50;;
21107;SDS011;10712;52.944;9.098;2023-02-28T10:24:45;2.05;;;1.30;;
21107;SDS011;10712;52.944;9.098;2023-02-28T10:27:16;2.40;;;1.27;;
21107;SDS011;10712;52.944;9.098;2023-02-28T10:29:48;3.13;;;1.40;;
21107;SDS011;10712;52.944;9.098;2023-02-28T10:32:17;1.33;;;1.08;;
21107;SDS011;10712;52.944;9.098;2023-02-28T10:34:55;1.25;;;1.15;;
21107;SDS011;10712;52.944;9.098;2023-02-28T10:37:49;3.10;;;1.30;;
21107;SDS011;10712;52.944;9.098;2023-02-28T10:42:55;1.70;;;1.20;;
21107;SDS011;10712;52.944;9.098;2023-02-28T10:45:26;3.17;;;1.48;;
21107;SDS011;10712;52.944;9.098;2023-02-28T10:47:59;1.30;;;1.10;;
21107;SDS011;10712;52.944;9.098;2023-02-28T10:58:46;1.92;;;1.67;;
21107;SDS011;10712;52.944;9.098;2023-02-28T11:04:19;3.65;;;2.53;;
21107;SDS011;10712;52.944;9.098;2023-02-28T11:07:18;5.88;;;2.10;;
21107;SDS011;10712;52.944;9.098;2023-02-28T11:09:54;4.30;;;1.60;;
21107;SDS011;10712;52.944;9.098;2023-02-28T11:12:29;4.60;;;2.53;;
21107;SDS011;10712;52.944;9.098;2023-02-28T11:15:07;2.47;;;1.80;;
21107;SDS011;10712;52.944;9.098;2023-02-28T11:18:00;3.40;;;2.05;;
21107;SDS011;10712;52.944;9.098;2023-02-28T11:20:52;2.25;;;1.65;;
21107;SDS011;10712;52.944;9.098;2023-02-28T11:23:23;3.20;;;1.60;;
21107;SDS011;10712;52.944;9.098;2023-02-28T11:25:54;2.70;;;1.98;;
21107;SDS011;10712;52.944;9.098;2023-02-28T11:28:34;1.50;;;1.33;;
21107;SDS011;10712;52.944;9.098;2023-02-28T11:33:54;2.40;;;1.40;;
21107;SDS011;10712;52.944;9.098;2023-02-28T11:36:28;2.92;;;1.70;;
21107;SDS011;10712;52.944;9.098;2023-02-28T11:38:59;2.53;;;1.50;;
21107;SDS011;10712;52.944;9.098;2023-02-28T11:55:52;5.20;;;3.25;;
21107;SDS011;10712;52.944;9.098;2023-02-28T12:02:25;1.80;;;1.50;;
21107;SDS011;10712;52.944;9.098;2023-02-28T12:10:29;1.40;;;1.30;;
21107;SDS011;10712;52.944;9.098;2023-02-28T12:13:10;1.35;;;1.10;;
21107;SDS011;10712;52.944;9.098;2023-02-28T12:27:26;1.80;;;1.42;;
21107;SDS011;10712;52.944;9.098;2023-02-28T12:30:04;2.13;;;1.30;;
21107;SDS011;10712;52.944;9.098;2023-02-28T12:32:45;2.95;;;1.30;;
21107;SDS011;10712;52.944;9.098;2023-02-28T12:35:25;1.45;;;1.15;;
21107;SDS011;10712;52.944;9.098;2023-02-28T12:38:10;2.35;;;1.05;;
21107;SDS011;10712;52.944;9.098;2023-02-28T12:40:50;1.98;;;1.40;;
21107;SDS011;10712;52.944;9.098;2023-02-28T12:43:31;1.77;;;1.10;;
21107;SDS011;10712;52.944;9.098;2023-02-28T12:46:07;1.08;;;1.08;;
21107;SDS011;10712;52.944;9.098;2023-02-28T12:48:55;0.77;;;0.75;;
21107;SDS011;10712;52.944;9.098;2023-02-28T12:51:24;1.20;;;1.10;;
21107;SDS011;10712;52.944;9.098;2023-02-28T12:54:06;1.73;;;1.20;;
21107;SDS011;10712;52.944;9.098;2023-02-28T12:59:49;6.30;;;2.70;;
21107;SDS011;10712;52.944;9.098;2023-02-28T13:10:24;4.70;;;1.20;;
21107;SDS011;10712;52.944;9.098;2023-02-28T13:13:04;0.75;;;0.75;;
21107;SDS011;10712;52.944;9.098;2023-02-28T13:15:29;1.25;;;0.90;;
21107;SDS011;10712;52.944;9.098;2023-02-28T13:18:00;1.90;;;0.77;;
21107;SDS011;10712;52.944;9.098;2023-02-28T13:22:58;1.02;;;0.77;;
21107;SDS011;10712;52.944;9.098;2023-02-28T13:28:08;4.53;;;0.90;;
21107;SDS011;10712;52.944;9.098;2023-02-28T13:33:30;1.10;;;1.00;;
21107;SDS011;10712;52.944;9.098;2023-02-28T13:38:56;0.93;;;0.77;;
21107;SDS011;10712;52.944;9.098;2023-02-28T13:41:46;7.22;;;0.73;;
21107;SDS011;10712;52.944;9.098;2023-02-28T13:44:13;1.08;;;0.90;;
21107;SDS011;10712;52.944;9.098;2023-02-28T13:54:57;2.20;;;2.00;;
21107;SDS011;10712;52.944;9.098;2023-02-28T14:07:25;2.53;;;0.73;;
21107;SDS011;10712;52.944;9.098;2023-02-28T14:10:05;0.93;;;0.82;;
21107;SDS011;10712;52.944;9.098;2023-02-28T14:20:54;1.20;;;0.90;;
21107;SDS011;10712;52.944;9.098;2023-02-28T14:26:44;1.30;;;0.85;;
21107;SDS011;10712;52.944;9.098;2023-02-28T14:38:49;0.70;;;0.63;;
21107;SDS011;10712;52.944;9.098;2023-02-28T14:41:29;1.83;;;0.90;;
21107;SDS011;10712;52.944;9.098;2023-02-28T14:44:01;1.10;;;1.00;;
21107;SDS011;10712;52.944;9.098;2023-02-28T14:46:39;42.97;;;23.48;;
21107;SDS011;10712;52.944;9.098;2023-02-28T14:54:42;3.38;;;2.55;;
21107;SDS011;10712;52.944;9.098;2023-02-28T15:00:02;1.33;;;1.23;;
21107;SDS011;10712;52.944;9.098;2023-02-28T15:02:48;1.33;;;1.10;;
21107;SDS011;10712;52.944;9.098;2023-02-28T15:07:43;1.35;;;1.00;;
21107;SDS011;10712;52.944;9.098;2023-02-28T15:21:18;1.50;;;0.98;;
21107;SDS011;10712;52.944;9.098;2023-02-28T15:23:59;75.95;;;43.85;;
21107;SDS011;10712;52.944;9.098;2023-02-28T15:26:39;37.72;;;23.20;;
21107;SDS011;10712;52.944;9.098;2023-02-28T15:29:14;81.55;;;40.55;;
21107;SDS011;10712;52.944;9.098;2023-02-28T15:31:47;43.38;;;24.70;;
21107;SDS011;10712;52.944;9.098;2023-02-28T15:34:28;34.67;;;20.00;;
21107;SDS011;10712;52.944;9.098;2023-02-28T15:37:06;56.78;;;34.45;;
21107;SDS011;10712;52.944;9.098;2023-02-28T15:39:52;56.92;;;32.45;;
21107;SDS011;10712;52.944;9.098;2023-02-28T15:42:21;32.63;;;21.38;;
21107;SDS011;10712;52.944;9.098;2023-02-28T15:49:56;17.95;;;11.75;;
21107;SDS011;10712;52.944;9.098;2023-02-28T15:55:21;22.42;;;17.55;;
21107;SDS011;10712;52.944;9.098;2023-02-28T15:57:53;20.85;;;12.77;;
21107;SDS011;10712;52.944;9.098;2023-02-28T16:00:25;14.13;;;10.38;;
21107;SDS011;10712;52.944;9.098;2023-02-28T16:02:54;15.15;;;11.45;;
21107;SDS011;10712;52.944;9.098;2023-02-28T16:05:30;13.98;;;9.07;;
21107;SDS011;10712;52.944;9.098;2023-02-28T16:08:00;22.17;;;13.85;;
21107;SDS011;10712;52.944;9.098;2023-02-28T16:10:38;19.15;;;13.40;;
21107;SDS011;10712;52.944;9.098;2023-02-28T16:13:04;16.70;;;11.25;;
21107;SDS011;10712;52.944;9.098;2023-02-28T16:15:31;72.65;;;46.67;;
21107;SDS011;10712;52.944;9.098;2023-02-28T16:18:07;44.15;;;29.85;;
21107;SDS011;10712;52.944;9.098;2023-02-28T16:20:37;28.60;;;19.38;;
21107;SDS011;10712;52.944;9.098;2023-02-28T16:23:03;28.80;;;19.13;;
21107;SDS011;10712;52.944;9.098;2023-02-28T16:25:38;26.02;;;15.05;;
21107;SDS011;10712;52.944;9.098;2023-02-28T16:28:08;16.45;;;11.32;;
21107;SDS011;10712;52.944;9.098;2023-02-28T16:30:53;20.02;;;12.00;;
21107;SDS011;10712;52.944;9.098;2023-02-28T16:33:19;8.77;;;6.47;;
21107;SDS011;10712;52.944;9.098;2023-02-28T16:35:45;7.68;;;5.50;;
21107;SDS011;10712;52.944;9.098;2023-02-28T16:38:11;5.93;;;4.07;;
21107;SDS011;10712;52.944;9.098;2023-02-28T16:40:36;6.35;;;4.15;;
21107;SDS011;10712;52.944;9.098;2023-02-28T16:43:07;6.68;;;4.43;;
21107;SDS011;10712;52.944;9.098;2023-02-28T16:45:41;14.88;;;9.18;;
21107;SDS011;10712;52.944;9.098;2023-02-28T16:48:08;28.27;;;12.50;;
21107;SDS011;10712;52.944;9.098;2023-02-28T16:50:39;12.95;;;7.15;;
21107;SDS011;10712;52.944;9.098;2023-02-28T16:53:05;7.55;;;4.30;;
21107;SDS011;10712;52.944;9.098;2023-02-28T16:55:31;5.80;;;4.20;;
21107;SDS011;10712;52.944;9.098;2023-02-28T16:57:58;6.22;;;3.58;;
21107;SDS011;10712;52.944;9.098;2023-02-28T17:00:26;5.25;;;3.15;;
21107;SDS011;10712;52.944;9.098;2023-02-28T17:02:56;6.47;;;3.80;;
21107;SDS011;10712;52.944;9.098;2023-02-28T17:05:24;10.27;;;6.63;;
21107;SDS011;10712;52.944;9.098;2023-02-28T17:07:53;5.00;;;3.60;;
21107;SDS011;10712;52.944;9.098;2023-02-28T17:10:20;5.80;;;3.45;;
21107;SDS011;10712;52.944;9.098;2023-02-28T17:12:49;5.68;;;3.50;;
21107;SDS011;10712;52.944;9.098;2023-02-28T17:15:17;6.10;;;3.05;;
21107;SDS011;10712;52.944;9.098;2023-02-28T17:17:44;5.90;;;2.95;;
21107;SDS011;10712;52.944;9.098;2023-02-28T17:20:16;3.85;;;2.90;;
21107;SDS011;10712;52.944;9.098;2023-02-28T17:22:51;4.65;;;3.50;;
21107;SDS011;10712;52.944;9.098;2023-02-28T17:25:19;4.72;;;2.78;;
21107;SDS011;10712;52.944;9.098;2023-02-28T17:27:45;2.47;;;2.00;;
21107;SDS011;10712;52.944;9.098;2023-02-28T17:30:19;7.55;;;2.70;;
21107;SDS011;10712;52.944;9.098;2023-02-28T17:32:54;3.33;;;2.03;;
21107;SDS011;10712;52.944;9.098;2023-02-28T17:35:21;3.15;;;2.30;;
21107;SDS011;10712;52.944;9.098;2023-02-28T17:37:48;3.05;;;1.85;;
21107;SDS011;10712;52.944;9.098;2023-02-28T17:40:15;3.20;;;2.30;;
21107;SDS011;10712;52.944;9.098;2023-02-28T17:42:45;3.47;;;2.15;;
21107;SDS011;10712;52.944;9.098;2023-02-28T17:45:11;4.05;;;2.08;;
21107;SDS011;10712;52.944;9.098;2023-02-28T17:47:39;3.45;;;2.40;;
21107;SDS011;10712;52.944;9.098;2023-02-28T17:50:14;3.07;;;2.10;;
21107;SDS011;10712;52.944;9.098;2023-02-28T17:52:46;8.38;;;5.57;;
21107;SDS011;10712;52.944;9.098;2023-02-28T17:55:13;9.38;;;5.82;;
21107;SDS011;10712;52.944;9.098;2023-02-28T17:57:39;5.93;;;3.88;;
21107;SDS011;10712;52.944;9.098;2023-02-28T18:00:06;4.13;;;2.72;;
21107;SDS011;10712;52.944;9.098;2023-02-28T18:02:37;4.85;;;2.65;;
21107;SDS011;10712;52.944;9.098;2023-02-28T18:05:04;2.95;;;2.08;;
21107;SDS011;10712;52.944;9.098;2023-02-28T18:07:30;3.95;;;2.20;;
21107;SDS011;10712;52.944;9.098;2023-02-28T18:09:56;3.28;;;2.42;;
21107;SDS011;10712;52.944;9.098;2023-02-28T18:12:22;4.10;;;2.65;;
21107;SDS011;10712;52.944;9.098;2023-02-28T18:14:48;6.13;;;2.40;;
21107;SDS011;10712;52.944;9.098;2023-02-28T18:17:15;2.40;;;2.20;;
21107;SDS011;10712;52.944;9.098;2023-02-28T18:19:40;3.83;;;2.70;;
21107;SDS011;10712;52.944;9.098;2023-02-28T18:22:06;4.55;;;2.80;;
21107;SDS011;10712;52.944;9.098;2023-02-28T18:24:33;6.78;;;3.67;;
21107;SDS011;10712;52.944;9.098;2023-02-28T18:26:59;11.45;;;6.47;;